sensor_id;sensor_type;location;lat;lon;timestamp;temperature;humidity
43991;DHT22;29654;50.784;20.604;2023-05-20T00:00:30;19.40;56.10
43991;DHT22;29654;50.784;20.604;2023-05-20T00:05:34;19.40;56.10
43991;DHT22;29654;50.784;20.604;2023-05-20T00:10:37;19.40;56.30
43991;DHT22;29654;50.784;20.604;2023-05-20T00:15:39;19.50;56.30
43991;DHT22;29654;50.784;20.604;2023-05-20T00:20:44;19.50;56.30
43991;DHT22;29654;50.784;20.604;2023-05-20T00:25:46;19.50;56.40
43991;DHT22;29654;50.784;20.604;2023-05-20T00:30:49;19.50;56.30
43991;DHT22;29654;50.784;20.604;2023-05-20T00:35:53;19.50;56.40
43991;DHT22;29654;50.784;20.604;2023-05-20T00:40:56;19.50;56.40
43991;DHT22;29654;50.784;20.604;2023-05-20T00:45:59;19.50;56.30
43991;DHT22;29654;50.784;20.604;2023-05-20T00:51:04;19.50;56.40
43991;DHT22;29654;50.784;20.604;2023-05-20T00:56:08;19.50;56.40
43991;DHT22;29654;50.784;20.604;2023-05-20T01:01:11;19.50;56.40
43991;DHT22;29654;50.784;20.604;2023-05-20T01:06:15;19.50;56.40
43991;DHT22;29654;50.784;20.604;2023-05-20T01:11:24;19.50;56.50
43991;DHT22;29654;50.784;20.604;2023-05-20T01:16:29;19.60;56.50
43991;DHT22;29654;50.784;20.604;2023-05-20T01:21:35;19.60;56.50
43991;DHT22;29654;50.784;20.604;2023-05-20T01:26:40;19.60;56.60
43991;DHT22;29654;50.784;20.604;2023-05-20T01:31:42;19.60;56.60
43991;DHT22;29654;50.784;20.604;2023-05-20T01:36:47;19.60;56.50
43991;DHT22;29654;50.784;20.604;2023-05-20T01:41:51;19.60;56.60
43991;DHT22;29654;50.784;20.604;2023-05-20T01:46:54;19.60;56.60
43991;DHT22;29654;50.784;20.604;2023-05-20T01:51:57;19.60;56.60
43991;DHT22;29654;50.784;20.604;2023-05-20T01:57:01;19.60;56.60
43991;DHT22;29654;50.784;20.604;2023-05-20T02:02:04;19.60;56.70
43991;DHT22;29654;50.784;20.604;2023-05-20T02:07:07;19.60;56.60
43991;DHT22;29654;50.784;20.604;2023-05-20T02:12:11;19.60;56.60
43991;DHT22;29654;50.784;20.604;2023-05-20T02:17:17;19.60;56.60
43991;DHT22;29654;50.784;20.604;2023-05-20T02:22:19;19.60;56.60
43991;DHT22;29654;50.784;20.604;2023-05-20T02:27:23;19.60;56.60
43991;DHT22;29654;50.784;20.604;2023-05-20T02:32:26;19.60;56.80
43991;DHT22;29654;50.784;20.604;2023-05-20T02:37:29;19.50;56.60
43991;DHT22;29654;50.784;20.604;2023-05-20T02:42:33;19.50;56.80
43991;DHT22;29654;50.784;20.604;2023-05-20T02:47:36;19.50;56.90
43991;DHT22;29654;50.784;20.604;2023-05-20T02:52:39;19.50;56.90
43991;DHT22;29654;50.784;20.604;2023-05-20T02:57:44;19.50;56.90
43991;DHT22;29654;50.784;20.604;2023-05-20T03:02:47;19.50;57.00
43991;DHT22;29654;50.784;20.604;2023-05-20T03:07:49;19.40;57.00
43991;DHT22;29654;50.784;20.604;2023-05-20T03:12:53;19.50;57.10
43991;DHT22;29654;50.784;20.604;2023-05-20T03:17:56;19.50;57.10
43991;DHT22;29654;50.784;20.604;2023-05-20T03:22:59;19.50;57.10
43991;DHT22;29654;50.784;20.604;2023-05-20T03:28:03;19.50;57.10
43991;DHT22;29654;50.784;20.604;2023-05-20T03:33:08;19.50;57.20
43991;DHT22;29654;50.784;20.604;2023-05-20T03:38:12;19.50;57.20
43991;DHT22;29654;50.784;20.604;2023-05-20T03:43:16;19.60;57.20
43991;DHT22;29654;50.784;20.604;2023-05-20T03:48:19;19.60;57.40
43991;DHT22;29654;50.784;20.604;2023-05-20T03:53:23;19.60;57.30
43991;DHT22;29654;50.784;20.604;2023-05-20T03:58:27;19.70;57.30
43991;DHT22;29654;50.784;20.604;2023-05-20T04:03:31;19.70;57.20
43991;DHT22;29654;50.784;20.604;2023-05-20T04:08:34;19.70;57.10
43991;DHT22;29654;50.784;20.604;2023-05-20T04:13:38;19.80;57.30
43991;DHT22;29654;50.784;20.604;2023-05-20T04:18:41;19.80;57.40
43991;DHT22;29654;50.784;20.604;2023-05-20T04:23:46;19.80;57.40
43991;DHT22;29654;50.784;20.604;2023-05-20T04:28:51;19.90;57.40
43991;DHT22;29654;50.784;20.604;2023-05-20T04:33:55;19.90;57.40
43991;DHT22;29654;50.784;20.604;2023-05-20T04:38:59;20.00;57.50
43991;DHT22;29654;50.784;20.604;2023-05-20T04:44:03;20.00;57.50
43991;DHT22;29654;50.784;20.604;2023-05-20T04:49:06;20.20;57.50
43991;DHT22;29654;50.784;20.604;2023-05-20T04:54:09;20.20;57.30
43991;DHT22;29654;50.784;20.604;2023-05-20T04:59:13;20.30;57.50
43991;DHT22;29654;50.784;20.604;2023-05-20T05:04:16;20.30;57.50
43991;DHT22;29654;50.784;20.604;2023-05-20T05:09:18;20.50;57.50
43991;DHT22;29654;50.784;20.604;2023-05-20T05:14:22;20.60;57.40
43991;DHT22;29654;50.784;20.604;2023-05-20T05:19:26;20.70;57.40
43991;DHT22;29654;50.784;20.604;2023-05-20T05:24:29;20.80;57.30
43991;DHT22;29654;50.784;20.604;2023-05-20T05:29:33;20.90;57.20
43991;DHT22;29654;50.784;20.604;2023-05-20T05:34:36;20.90;57.00
43991;DHT22;29654;50.784;20.604;2023-05-20T05:39:39;21.00;56.80
43991;DHT22;29654;50.784;20.604;2023-05-20T05:44:44;21.00;56.70
43991;DHT22;29654;50.784;20.604;2023-05-20T05:49:47;21.00;56.70
43991;DHT22;29654;50.784;20.604;2023-05-20T05:54:50;21.10;56.70
43991;DHT22;29654;50.784;20.604;2023-05-20T05:59:54;21.10;56.80
43991;DHT22;29654;50.784;20.604;2023-05-20T06:04:58;21.10;56.70
43991;DHT22;29654;50.784;20.604;2023-05-20T06:10:01;21.20;56.80
43991;DHT22;29654;50.784;20.604;2023-05-20T06:15:07;21.30;56.70
43991;DHT22;29654;50.784;20.604;2023-05-20T06:20:11;21.40;56.60
43991;DHT22;29654;50.784;20.604;2023-05-20T06:25:14;21.60;56.50
43991;DHT22;29654;50.784;20.604;2023-05-20T06:30:20;21.70;56.30
43991;DHT22;29654;50.784;20.604;2023-05-20T06:35:23;21.80;56.10
43991;DHT22;29654;50.784;20.604;2023-05-20T06:40:26;21.80;56.00
43991;DHT22;29654;50.784;20.604;2023-05-20T06:45:30;21.90;56.10
43991;DHT22;29654;50.784;20.604;2023-05-20T06:50:51;22.00;55.90
43991;DHT22;29654;50.784;20.604;2023-05-20T06:55:54;22.20;55.80
43991;DHT22;29654;50.784;20.604;2023-05-20T07:00:58;22.20;55.60
43991;DHT22;29654;50.784;20.604;2023-05-20T07:06:01;22.30;55.60
43991;DHT22;29654;50.784;20.604;2023-05-20T07:11:05;22.50;55.70
43991;DHT22;29654;50.784;20.604;2023-05-20T07:16:09;22.60;55.40
43991;DHT22;29654;50.784;20.604;2023-05-20T07:21:17;22.70;55.30
43991;DHT22;29654;50.784;20.604;2023-05-20T07:26:29;22.70;55.10
43991;DHT22;29654;50.784;20.604;2023-05-20T07:31:35;22.80;55.10
43991;DHT22;29654;50.784;20.604;2023-05-20T07:36:38;22.90;55.10
43991;DHT22;29654;50.784;20.604;2023-05-20T07:41:41;23.00;55.00
43991;DHT22;29654;50.784;20.604;2023-05-20T07:46:46;23.00;54.80
43991;DHT22;29654;50.784;20.604;2023-05-20T07:51:49;23.10;54.90
43991;DHT22;29654;50.784;20.604;2023-05-20T07:56:52;23.20;54.80
43991;DHT22;29654;50.784;20.604;2023-05-20T08:01:56;23.20;54.70
43991;DHT22;29654;50.784;20.604;2023-05-20T08:06:59;23.30;54.60
43991;DHT22;29654;50.784;20.604;2023-05-20T08:12:14;23.40;54.60
43991;DHT22;29654;50.784;20.604;2023-05-20T08:17:19;23.50;54.60
43991;DHT22;29654;50.784;20.604;2023-05-20T08:22:21;23.60;54.50
43991;DHT22;29654;50.784;20.604;2023-05-20T08:27:24;23.60;54.50
43991;DHT22;29654;50.784;20.604;2023-05-20T08:32:32;23.70;54.60
43991;DHT22;29654;50.784;20.604;2023-05-20T08:37:38;23.80;54.30
43991;DHT22;29654;50.784;20.604;2023-05-20T08:42:42;23.80;54.20
43991;DHT22;29654;50.784;20.604;2023-05-20T08:47:48;23.90;54.30
43991;DHT22;29654;50.784;20.604;2023-05-20T08:52:50;24.00;54.30
43991;DHT22;29654;50.784;20.604;2023-05-20T08:57:53;24.10;54.40
43991;DHT22;29654;50.784;20.604;2023-05-20T09:02:58;24.30;54.30
43991;DHT22;29654;50.784;20.604;2023-05-20T09:08:05;24.50;54.00
43991;DHT22;29654;50.784;20.604;2023-05-20T09:13:10;24.70;53.70
43991;DHT22;29654;50.784;20.604;2023-05-20T09:18:14;24.70;53.50
43991;DHT22;29654;50.784;20.604;2023-05-20T09:23:18;24.90;53.60
43991;DHT22;29654;50.784;20.604;2023-05-20T09:28:22;25.00;53.80
43991;DHT22;29654;50.784;20.604;2023-05-20T09:33:28;25.30;53.70
43991;DHT22;29654;50.784;20.604;2023-05-20T09:38:33;25.40;53.00
43991;DHT22;29654;50.784;20.604;2023-05-20T09:43:39;25.50;52.80
43991;DHT22;29654;50.784;20.604;2023-05-20T09:48:43;25.60;52.80
43991;DHT22;29654;50.784;20.604;2023-05-20T09:53:46;25.70;52.90
43991;DHT22;29654;50.784;20.604;2023-05-20T09:58:49;25.80;52.90
43991;DHT22;29654;50.784;20.604;2023-05-20T10:03:53;26.00;53.00
43991;DHT22;29654;50.784;20.604;2023-05-20T10:09:26;26.20;52.70
43991;DHT22;29654;50.784;20.604;2023-05-20T10:14:46;26.30;52.00
43991;DHT22;29654;50.784;20.604;2023-05-20T10:19:58;26.30;51.80
43991;DHT22;29654;50.784;20.604;2023-05-20T10:25:05;26.40;51.80
43991;DHT22;29654;50.784;20.604;2023-05-20T10:30:15;26.40;52.10
43991;DHT22;29654;50.784;20.604;2023-05-20T10:35:23;26.50;51.70
43991;DHT22;29654;50.784;20.604;2023-05-20T10:40:27;26.50;51.90
43991;DHT22;29654;50.784;20.604;2023-05-20T10:45:29;26.60;51.80
43991;DHT22;29654;50.784;20.604;2023-05-20T10:50:35;26.70;51.70
43991;DHT22;29654;50.784;20.604;2023-05-20T10:55:39;26.70;51.50
43991;DHT22;29654;50.784;20.604;2023-05-20T11:00:42;26.80;51.70
43991;DHT22;29654;50.784;20.604;2023-05-20T11:05:47;27.00;52.00
43991;DHT22;29654;50.784;20.604;2023-05-20T11:10:50;27.20;52.10
43991;DHT22;29654;50.784;20.604;2023-05-20T11:15:53;27.40;51.80
43991;DHT22;29654;50.784;20.604;2023-05-20T11:20:57;27.60;51.40
43991;DHT22;29654;50.784;20.604;2023-05-20T11:26:00;27.70;51.20
43991;DHT22;29654;50.784;20.604;2023-05-20T11:31:03;27.90;51.00
43991;DHT22;29654;50.784;20.604;2023-05-20T11:36:08;28.00;50.90
43991;DHT22;29654;50.784;20.604;2023-05-20T11:41:14;28.20;50.80
43991;DHT22;29654;50.784;20.604;2023-05-20T11:46:20;28.30;50.20
43991;DHT22;29654;50.784;20.604;2023-05-20T11:51:26;28.40;49.80
43991;DHT22;29654;50.784;20.604;2023-05-20T11:56:29;28.50;50.00
43991;DHT22;29654;50.784;20.604;2023-05-20T12:01:34;28.60;49.90
43991;DHT22;29654;50.784;20.604;2023-05-20T12:06:42;28.70;49.70
43991;DHT22;29654;50.784;20.604;2023-05-20T12:11:44;28.90;49.30
43991;DHT22;29654;50.784;20.604;2023-05-20T12:16:47;29.00;49.30
43991;DHT22;29654;50.784;20.604;2023-05-20T12:21:52;29.10;48.80
43991;DHT22;29654;50.784;20.604;2023-05-20T12:26:54;29.10;48.30
43991;DHT22;29654;50.784;20.604;2023-05-20T12:31:57;29.00;48.40
43991;DHT22;29654;50.784;20.604;2023-05-20T12:37:01;29.00;48.20
43991;DHT22;29654;50.784;20.604;2023-05-20T12:42:04;29.00;48.30
43991;DHT22;29654;50.784;20.604;2023-05-20T12:47:08;29.00;48.30
43991;DHT22;29654;50.784;20.604;2023-05-20T12:52:11;29.10;48.10
43991;DHT22;29654;50.784;20.604;2023-05-20T12:57:14;29.10;47.90
43991;DHT22;29654;50.784;20.604;2023-05-20T13:02:18;29.20;47.90
43991;DHT22;29654;50.784;20.604;2023-05-20T13:07:22;29.30;47.40
43991;DHT22;29654;50.784;20.604;2023-05-20T13:12:26;29.40;46.70
43991;DHT22;29654;50.784;20.604;2023-05-20T13:17:29;29.40;47.10
43991;DHT22;29654;50.784;20.604;2023-05-20T13:22:33;29.50;47.10
43991;DHT22;29654;50.784;20.604;2023-05-20T13:27:35;29.50;46.30
43991;DHT22;29654;50.784;20.604;2023-05-20T13:32:38;29.50;45.90
43991;DHT22;29654;50.784;20.604;2023-05-20T13:37:42;29.50;45.80
43991;DHT22;29654;50.784;20.604;2023-05-20T13:42:45;29.40;45.80
43991;DHT22;29654;50.784;20.604;2023-05-20T13:47:47;29.40;46.10
43991;DHT22;29654;50.784;20.604;2023-05-20T13:52:51;29.50;45.40
43991;DHT22;29654;50.784;20.604;2023-05-20T13:57:54;29.50;45.10
43991;DHT22;29654;50.784;20.604;2023-05-20T14:02:56;29.40;45.20
43991;DHT22;29654;50.784;20.604;2023-05-20T14:08:02;29.40;45.20
43991;DHT22;29654;50.784;20.604;2023-05-20T14:13:04;29.40;45.30
43991;DHT22;29654;50.784;20.604;2023-05-20T14:18:10;29.50;45.30
43991;DHT22;29654;50.784;20.604;2023-05-20T14:23:14;29.50;44.60
43991;DHT22;29654;50.784;20.604;2023-05-20T14:28:17;29.50;44.40
43991;DHT22;29654;50.784;20.604;2023-05-20T14:33:19;29.50;44.90
43991;DHT22;29654;50.784;20.604;2023-05-20T14:38:23;29.50;45.10
43991;DHT22;29654;50.784;20.604;2023-05-20T14:43:27;29.50;44.80
43991;DHT22;29654;50.784;20.604;2023-05-20T14:48:31;29.50;44.50
43991;DHT22;29654;50.784;20.604;2023-05-20T14:53:35;29.50;44.30
43991;DHT22;29654;50.784;20.604;2023-05-20T14:58:38;29.60;43.90
43991;DHT22;29654;50.784;20.604;2023-05-20T15:03:41;29.60;43.80
43991;DHT22;29654;50.784;20.604;2023-05-20T15:08:44;29.70;44.00
43991;DHT22;29654;50.784;20.604;2023-05-20T15:13:47;29.70;43.70
43991;DHT22;29654;50.784;20.604;2023-05-20T15:18:51;29.80;43.70
43991;DHT22;29654;50.784;20.604;2023-05-20T15:23:55;29.80;43.70
43991;DHT22;29654;50.784;20.604;2023-05-20T15:28:57;29.80;43.60
43991;DHT22;29654;50.784;20.604;2023-05-20T15:34:00;29.70;43.40
43991;DHT22;29654;50.784;20.604;2023-05-20T15:39:04;29.60;43.30
43991;DHT22;29654;50.784;20.604;2023-05-20T15:44:07;29.30;43.70
43991;DHT22;29654;50.784;20.604;2023-05-20T15:49:09;29.10;44.00
43991;DHT22;29654;50.784;20.604;2023-05-20T15:54:13;28.90;44.20
43991;DHT22;29654;50.784;20.604;2023-05-20T15:59:16;28.90;44.40
43991;DHT22;29654;50.784;20.604;2023-05-20T16:04:19;28.80;44.70
43991;DHT22;29654;50.784;20.604;2023-05-20T16:09:23;28.80;44.30
43991;DHT22;29654;50.784;20.604;2023-05-20T16:14:25;28.80;43.80
43991;DHT22;29654;50.784;20.604;2023-05-20T16:19:28;28.80;44.00
43991;DHT22;29654;50.784;20.604;2023-05-20T16:24:32;28.70;44.10
43991;DHT22;29654;50.784;20.604;2023-05-20T16:29:35;28.70;43.90
43991;DHT22;29654;50.784;20.604;2023-05-20T16:34:39;28.70;44.20
43991;DHT22;29654;50.784;20.604;2023-05-20T16:39:43;28.60;42.80
43991;DHT22;29654;50.784;20.604;2023-05-20T16:44:47;28.40;42.20
43991;DHT22;29654;50.784;20.604;2023-05-20T16:49:50;28.00;41.80
43991;DHT22;29654;50.784;20.604;2023-05-20T16:54:54;27.70;41.80
43991;DHT22;29654;50.784;20.604;2023-05-20T17:00:02;27.30;42.60
43991;DHT22;29654;50.784;20.604;2023-05-20T17:05:09;27.00;42.40
43991;DHT22;29654;50.784;20.604;2023-05-20T17:10:13;26.70;42.90
43991;DHT22;29654;50.784;20.604;2023-05-20T17:15:15;26.60;43.40
43991;DHT22;29654;50.784;20.604;2023-05-20T17:20:18;26.50;43.70
43991;DHT22;29654;50.784;20.604;2023-05-20T17:25:22;26.50;44.00
43991;DHT22;29654;50.784;20.604;2023-05-20T17:30:25;26.50;44.10
43991;DHT22;29654;50.784;20.604;2023-05-20T17:35:28;26.60;44.10
43991;DHT22;29654;50.784;20.604;2023-05-20T17:40:32;26.50;43.80
43991;DHT22;29654;50.784;20.604;2023-05-20T17:45:35;26.40;43.80
43991;DHT22;29654;50.784;20.604;2023-05-20T17:50:38;26.30;43.80
43991;DHT22;29654;50.784;20.604;2023-05-20T17:55:42;26.20;44.00
43991;DHT22;29654;50.784;20.604;2023-05-20T18:00:46;26.10;44.10
43991;DHT22;29654;50.784;20.604;2023-05-20T18:05:49;25.90;44.30
43991;DHT22;29654;50.784;20.604;2023-05-20T18:10:53;25.80;44.40
43991;DHT22;29654;50.784;20.604;2023-05-20T18:15:56;25.70;44.50
43991;DHT22;29654;50.784;20.604;2023-05-20T18:20:58;25.60;44.70
43991;DHT22;29654;50.784;20.604;2023-05-20T18:26:03;25.40;44.80
43991;DHT22;29654;50.784;20.604;2023-05-20T18:31:07;25.30;45.00
43991;DHT22;29654;50.784;20.604;2023-05-20T18:36:09;25.10;45.20
43991;DHT22;29654;50.784;20.604;2023-05-20T18:41:13;25.00;45.40
43991;DHT22;29654;50.784;20.604;2023-05-20T18:46:16;24.90;45.50
43991;DHT22;29654;50.784;20.604;2023-05-20T18:51:19;24.80;45.50
43991;DHT22;29654;50.784;20.604;2023-05-20T18:56:23;24.60;45.70
43991;DHT22;29654;50.784;20.604;2023-05-20T19:01:26;24.50;45.90
43991;DHT22;29654;50.784;20.604;2023-05-20T19:06:28;24.30;46.00
43991;DHT22;29654;50.784;20.604;2023-05-20T19:11:33;24.20;46.00
43991;DHT22;29654;50.784;20.604;2023-05-20T19:16:35;24.10;46.30
43991;DHT22;29654;50.784;20.604;2023-05-20T19:21:38;23.90;46.50
43991;DHT22;29654;50.784;20.604;2023-05-20T19:26:45;23.80;46.70
43991;DHT22;29654;50.784;20.604;2023-05-20T19:31:48;23.70;46.90
43991;DHT22;29654;50.784;20.604;2023-05-20T19:36:50;23.50;47.00
43991;DHT22;29654;50.784;20.604;2023-05-20T19:41:55;23.40;47.10
43991;DHT22;29654;50.784;20.604;2023-05-20T19:46:57;23.30;47.30
43991;DHT22;29654;50.784;20.604;2023-05-20T19:52:00;23.20;47.50
43991;DHT22;29654;50.784;20.604;2023-05-20T19:57:04;23.10;47.70
43991;DHT22;29654;50.784;20.604;2023-05-20T20:02:07;23.00;47.90
43991;DHT22;29654;50.784;20.604;2023-05-20T20:07:10;22.90;48.00
43991;DHT22;29654;50.784;20.604;2023-05-20T20:12:15;22.90;48.10
43991;DHT22;29654;50.784;20.604;2023-05-20T20:17:17;22.90;48.20
43991;DHT22;29654;50.784;20.604;2023-05-20T20:22:22;22.80;48.20
43991;DHT22;29654;50.784;20.604;2023-05-20T20:27:26;22.70;48.30
43991;DHT22;29654;50.784;20.604;2023-05-20T20:32:29;22.50;48.30
43991;DHT22;29654;50.784;20.604;2023-05-20T20:37:31;22.40;48.40
43991;DHT22;29654;50.784;20.604;2023-05-20T20:42:36;22.30;48.50
43991;DHT22;29654;50.784;20.604;2023-05-20T20:47:41;22.10;48.90
43991;DHT22;29654;50.784;20.604;2023-05-20T20:52:44;22.10;49.00
43991;DHT22;29654;50.784;20.604;2023-05-20T20:57:48;22.00;49.10
43991;DHT22;29654;50.784;20.604;2023-05-20T21:02:51;21.90;49.30
43991;DHT22;29654;50.784;20.604;2023-05-20T21:07:54;21.80;49.30
43991;DHT22;29654;50.784;20.604;2023-05-20T21:13:01;21.70;49.30
43991;DHT22;29654;50.784;20.604;2023-05-20T21:18:03;21.60;49.40
43991;DHT22;29654;50.784;20.604;2023-05-20T21:23:06;21.50;49.60
43991;DHT22;29654;50.784;20.604;2023-05-20T21:28:10;21.50;49.80
43991;DHT22;29654;50.784;20.604;2023-05-20T21:33:13;21.40;50.00
43991;DHT22;29654;50.784;20.604;2023-05-20T21:38:16;21.30;50.10
43991;DHT22;29654;50.784;20.604;2023-05-20T21:43:20;21.30;50.10
43991;DHT22;29654;50.784;20.604;2023-05-20T21:48:22;21.20;50.30
43991;DHT22;29654;50.784;20.604;2023-05-20T21:53:25;21.10;50.20
43991;DHT22;29654;50.784;20.604;2023-05-20T21:58:29;21.00;50.20
43991;DHT22;29654;50.784;20.604;2023-05-20T22:03:32;20.90;50.70
43991;DHT22;29654;50.784;20.604;2023-05-20T22:08:35;20.90;50.70
43991;DHT22;29654;50.784;20.604;2023-05-20T22:13:39;20.80;51.10
43991;DHT22;29654;50.784;20.604;2023-05-20T22:18:42;20.80;51.80
43991;DHT22;29654;50.784;20.604;2023-05-20T22:23:47;20.70;51.90
43991;DHT22;29654;50.784;20.604;2023-05-20T22:28:51;20.70;52.30
43991;DHT22;29654;50.784;20.604;2023-05-20T22:33:54;20.80;52.70
43991;DHT22;29654;50.784;20.604;2023-05-20T22:38:57;20.80;52.50
43991;DHT22;29654;50.784;20.604;2023-05-20T22:44:00;20.80;53.10
43991;DHT22;29654;50.784;20.604;2023-05-20T22:49:03;20.90;52.50
43991;DHT22;29654;50.784;20.604;2023-05-20T22:54:06;20.90;52.40
43991;DHT22;29654;50.784;20.604;2023-05-20T22:59:10;21.00;52.40
43991;DHT22;29654;50.784;20.604;2023-05-20T23:04:13;21.00;52.30
43991;DHT22;29654;50.784;20.604;2023-05-20T23:09:15;21.00;52.10
43991;DHT22;29654;50.784;20.604;2023-05-20T23:14:19;21.10;52.00
43991;DHT22;29654;50.784;20.604;2023-05-20T23:19:22;21.10;52.00
43991;DHT22;29654;50.784;20.604;2023-05-20T23:24:24;21.00;51.90
43991;DHT22;29654;50.784;20.604;2023-05-20T23:29:28;21.00;51.80
43991;DHT22;29654;50.784;20.604;2023-05-20T23:34:31;20.90;51.70
43991;DHT22;29654;50.784;20.604;2023-05-20T23:39:34;20.90;52.20
43991;DHT22;29654;50.784;20.604;2023-05-20T23:44:38;20.70;51.70
43991;DHT22;29654;50.784;20.604;2023-05-20T23:49:41;20.70;51.80
43991;DHT22;29654;50.784;20.604;2023-05-20T23:54:45;20.60;51.90
43991;DHT22;29654;50.784;20.604;2023-05-20T23:59:49;20.50;52.10
